<?xml version="1.0" encoding="UTF-8" standalone="no" ?>
<gpx xmlns="http://www.topografix.com/GPX/1/1" xmlns:xsi="http://www.w3.org/2001/XMLSchema-instance" xsi:schemaLocation="http://www.topografix.com/GPX/1/1 http://www.topografix.com/GPX/1/1/gpx.xsd" version="1.1" creator="VisuGPX - https://www.visugpx.com">
  <metadata>
    <name>rando les amis du semal le 12 12 2010</name>
    <desc><![CDATA[rando les amis du semal le 12 12 2010]]></desc>
  </metadata>
  <wpt lat="43.65742" lon="2.04759">
    <ele>193</ele>
    <name><![CDATA[WPT001]]></name>
    <desc><![CDATA[]]></desc>
    <type><![CDATA[Point de départ]]></type>
  </wpt>
  <wpt lat="43.65742" lon="2.04759">
    <ele>193</ele>
    <name><![CDATA[WPT002]]></name>
    <desc><![CDATA[]]></desc>
    <type><![CDATA[Point d'arrivée]]></type>
  </wpt>
  <wpt lat="43.65734" lon="2.04743">
    <ele>225</ele>
    <name><![CDATA[WPT003]]></name>
    <desc><![CDATA[]]></desc>
    <type><![CDATA[Point d'arrivée]]></type>
  </wpt>
  <trk>
    <name><![CDATA[2010-12-12 08:50]]></name>
    <trkseg>
      <trkpt lat="43.65742" lon="2.04759">
        <ele>193</ele>
        <time>2010-12-12T07:51:03Z</time>
      </trkpt>
      <trkpt lat="43.65739" lon="2.04752">
        <ele>219</ele>
        <time>2010-12-12T07:51:31Z</time>
      </trkpt>
      <trkpt lat="43.65731" lon="2.04729">
        <ele>219</ele>
        <time>2010-12-12T07:52:02Z</time>
      </trkpt>
      <trkpt lat="43.65733" lon="2.04698">
        <ele>220</ele>
        <time>2010-12-12T07:52:21Z</time>
      </trkpt>
      <trkpt lat="43.65734" lon="2.04671">
        <ele>220</ele>
        <time>2010-12-12T07:52:39Z</time>
      </trkpt>
      <trkpt lat="43.65733" lon="2.04644">
        <ele>220</ele>
        <time>2010-12-12T07:52:52Z</time>
      </trkpt>
      <trkpt lat="43.65736" lon="2.04617">
        <ele>219</ele>
        <time>2010-12-12T07:53:09Z</time>
      </trkpt>
      <trkpt lat="43.65743" lon="2.04593">
        <ele>218</ele>
        <time>2010-12-12T07:53:20Z</time>
      </trkpt>
      <trkpt lat="43.6575" lon="2.0457">
        <ele>217</ele>
        <time>2010-12-12T07:53:33Z</time>
      </trkpt>
      <trkpt lat="43.65757" lon="2.04547">
        <ele>218</ele>
        <time>2010-12-12T07:53:47Z</time>
      </trkpt>
      <trkpt lat="43.65764" lon="2.04524">
        <ele>218</ele>
        <time>2010-12-12T07:54:01Z</time>
      </trkpt>
      <trkpt lat="43.6577" lon="2.045">
        <ele>217</ele>
        <time>2010-12-12T07:54:16Z</time>
      </trkpt>
      <trkpt lat="43.65772" lon="2.04472">
        <ele>216</ele>
        <time>2010-12-12T07:54:32Z</time>
      </trkpt>
      <trkpt lat="43.65779" lon="2.04449">
        <ele>217</ele>
        <time>2010-12-12T07:54:46Z</time>
      </trkpt>
      <trkpt lat="43.6578" lon="2.04422">
        <ele>216</ele>
        <time>2010-12-12T07:54:59Z</time>
      </trkpt>
      <trkpt lat="43.65784" lon="2.04398">
        <ele>213</ele>
        <time>2010-12-12T07:55:13Z</time>
      </trkpt>
      <trkpt lat="43.65803" lon="2.04397">
        <ele>211</ele>
        <time>2010-12-12T07:55:28Z</time>
      </trkpt>
      <trkpt lat="43.6582" lon="2.04403">
        <ele>211</ele>
        <time>2010-12-12T07:55:44Z</time>
      </trkpt>
      <trkpt lat="43.65842" lon="2.04408">
        <ele>214</ele>
        <time>2010-12-12T07:56:04Z</time>
      </trkpt>
      <trkpt lat="43.65861" lon="2.04408">
        <ele>218</ele>
        <time>2010-12-12T07:56:14Z</time>
      </trkpt>
      <trkpt lat="43.65879" lon="2.04403">
        <ele>220</ele>
        <time>2010-12-12T07:56:25Z</time>
      </trkpt>
      <trkpt lat="43.65895" lon="2.0439">
        <ele>221</ele>
        <time>2010-12-12T07:56:40Z</time>
      </trkpt>
      <trkpt lat="43.65914" lon="2.04377">
        <ele>220</ele>
        <time>2010-12-12T07:56:57Z</time>
      </trkpt>
      <trkpt lat="43.65933" lon="2.04366">
        <ele>219</ele>
        <time>2010-12-12T07:57:12Z</time>
      </trkpt>
      <trkpt lat="43.65949" lon="2.04354">
        <ele>218</ele>
        <time>2010-12-12T07:57:27Z</time>
      </trkpt>
      <trkpt lat="43.65967" lon="2.04343">
        <ele>218</ele>
        <time>2010-12-12T07:57:39Z</time>
      </trkpt>
      <trkpt lat="43.65984" lon="2.04331">
        <ele>218</ele>
        <time>2010-12-12T07:57:55Z</time>
      </trkpt>
      <trkpt lat="43.66001" lon="2.04321">
        <ele>217</ele>
        <time>2010-12-12T07:58:11Z</time>
      </trkpt>
      <trkpt lat="43.66018" lon="2.04314">
        <ele>217</ele>
        <time>2010-12-12T07:58:25Z</time>
      </trkpt>
      <trkpt lat="43.66033" lon="2.04299">
        <ele>218</ele>
        <time>2010-12-12T07:58:39Z</time>
      </trkpt>
      <trkpt lat="43.66051" lon="2.04283">
        <ele>218</ele>
        <time>2010-12-12T07:58:55Z</time>
      </trkpt>
      <trkpt lat="43.66063" lon="2.04263">
        <ele>219</ele>
        <time>2010-12-12T07:59:11Z</time>
      </trkpt>
      <trkpt lat="43.66075" lon="2.04243">
        <ele>220</ele>
        <time>2010-12-12T07:59:25Z</time>
      </trkpt>
      <trkpt lat="43.66084" lon="2.04222">
        <ele>222</ele>
        <time>2010-12-12T07:59:39Z</time>
      </trkpt>
      <trkpt lat="43.66092" lon="2.04199">
        <ele>223</ele>
        <time>2010-12-12T07:59:53Z</time>
      </trkpt>
      <trkpt lat="43.66098" lon="2.04175">
        <ele>225</ele>
        <time>2010-12-12T08:00:07Z</time>
      </trkpt>
      <trkpt lat="43.66108" lon="2.04153">
        <ele>226</ele>
        <time>2010-12-12T08:00:23Z</time>
      </trkpt>
      <trkpt lat="43.66112" lon="2.04129">
        <ele>226</ele>
        <time>2010-12-12T08:00:36Z</time>
      </trkpt>
      <trkpt lat="43.66127" lon="2.04116">
        <ele>226</ele>
        <time>2010-12-12T08:00:48Z</time>
      </trkpt>
      <trkpt lat="43.66141" lon="2.04096">
        <ele>226</ele>
        <time>2010-12-12T08:01:05Z</time>
      </trkpt>
      <trkpt lat="43.66156" lon="2.0408">
        <ele>227</ele>
        <time>2010-12-12T08:01:18Z</time>
      </trkpt>
      <trkpt lat="43.66171" lon="2.04065">
        <ele>228</ele>
        <time>2010-12-12T08:01:33Z</time>
      </trkpt>
      <trkpt lat="43.6619" lon="2.04052">
        <ele>229</ele>
        <time>2010-12-12T08:01:48Z</time>
      </trkpt>
      <trkpt lat="43.66205" lon="2.04036">
        <ele>230</ele>
        <time>2010-12-12T08:02:05Z</time>
      </trkpt>
      <trkpt lat="43.66222" lon="2.04024">
        <ele>231</ele>
        <time>2010-12-12T08:02:19Z</time>
      </trkpt>
      <trkpt lat="43.66236" lon="2.04007">
        <ele>232</ele>
        <time>2010-12-12T08:02:33Z</time>
      </trkpt>
      <trkpt lat="43.66253" lon="2.03992">
        <ele>234</ele>
        <time>2010-12-12T08:02:50Z</time>
      </trkpt>
      <trkpt lat="43.66267" lon="2.03976">
        <ele>237</ele>
        <time>2010-12-12T08:03:05Z</time>
      </trkpt>
      <trkpt lat="43.66282" lon="2.03961">
        <ele>240</ele>
        <time>2010-12-12T08:03:21Z</time>
      </trkpt>
      <trkpt lat="43.66298" lon="2.03949">
        <ele>242</ele>
        <time>2010-12-12T08:03:32Z</time>
      </trkpt>
      <trkpt lat="43.66314" lon="2.03932">
        <ele>243</ele>
        <time>2010-12-12T08:03:45Z</time>
      </trkpt>
      <trkpt lat="43.66328" lon="2.03915">
        <ele>243</ele>
        <time>2010-12-12T08:04:00Z</time>
      </trkpt>
      <trkpt lat="43.66342" lon="2.03898">
        <ele>243</ele>
        <time>2010-12-12T08:04:15Z</time>
      </trkpt>
      <trkpt lat="43.66355" lon="2.03881">
        <ele>244</ele>
        <time>2010-12-12T08:04:27Z</time>
      </trkpt>
      <trkpt lat="43.66369" lon="2.03863">
        <ele>244</ele>
        <time>2010-12-12T08:04:43Z</time>
      </trkpt>
      <trkpt lat="43.66382" lon="2.03845">
        <ele>244</ele>
        <time>2010-12-12T08:04:57Z</time>
      </trkpt>
      <trkpt lat="43.66399" lon="2.03826">
        <ele>243</ele>
        <time>2010-12-12T08:05:14Z</time>
      </trkpt>
      <trkpt lat="43.66416" lon="2.03813">
        <ele>244</ele>
        <time>2010-12-12T08:05:29Z</time>
      </trkpt>
      <trkpt lat="43.66433" lon="2.03803">
        <ele>245</ele>
        <time>2010-12-12T08:05:44Z</time>
      </trkpt>
      <trkpt lat="43.66451" lon="2.03798">
        <ele>246</ele>
        <time>2010-12-12T08:05:58Z</time>
      </trkpt>
      <trkpt lat="43.6647" lon="2.03805">
        <ele>247</ele>
        <time>2010-12-12T08:06:13Z</time>
      </trkpt>
      <trkpt lat="43.66488" lon="2.03809">
        <ele>247</ele>
        <time>2010-12-12T08:06:28Z</time>
      </trkpt>
      <trkpt lat="43.66507" lon="2.03813">
        <ele>248</ele>
        <time>2010-12-12T08:06:42Z</time>
      </trkpt>
      <trkpt lat="43.66525" lon="2.03812">
        <ele>249</ele>
        <time>2010-12-12T08:06:55Z</time>
      </trkpt>
      <trkpt lat="43.66543" lon="2.03808">
        <ele>250</ele>
        <time>2010-12-12T08:07:21Z</time>
      </trkpt>
      <trkpt lat="43.66562" lon="2.03806">
        <ele>251</ele>
        <time>2010-12-12T08:07:33Z</time>
      </trkpt>
      <trkpt lat="43.6658" lon="2.03805">
        <ele>252</ele>
        <time>2010-12-12T08:07:47Z</time>
      </trkpt>
      <trkpt lat="43.66581" lon="2.03832">
        <ele>255</ele>
        <time>2010-12-12T08:08:04Z</time>
      </trkpt>
      <trkpt lat="43.6658" lon="2.03857">
        <ele>258</ele>
        <time>2010-12-12T08:08:18Z</time>
      </trkpt>
      <trkpt lat="43.66584" lon="2.03885">
        <ele>260</ele>
        <time>2010-12-12T08:08:39Z</time>
      </trkpt>
      <trkpt lat="43.66588" lon="2.0391">
        <ele>259</ele>
        <time>2010-12-12T08:08:52Z</time>
      </trkpt>
      <trkpt lat="43.66591" lon="2.03941">
        <ele>259</ele>
        <time>2010-12-12T08:09:09Z</time>
      </trkpt>
      <trkpt lat="43.66588" lon="2.03967">
        <ele>259</ele>
        <time>2010-12-12T08:09:23Z</time>
      </trkpt>
      <trkpt lat="43.66583" lon="2.03992">
        <ele>260</ele>
        <time>2010-12-12T08:09:39Z</time>
      </trkpt>
      <trkpt lat="43.6658" lon="2.04016">
        <ele>261</ele>
        <time>2010-12-12T08:09:53Z</time>
      </trkpt>
      <trkpt lat="43.66593" lon="2.04036">
        <ele>262</ele>
        <time>2010-12-12T08:10:08Z</time>
      </trkpt>
      <trkpt lat="43.6661" lon="2.04051">
        <ele>261</ele>
        <time>2010-12-12T08:10:27Z</time>
      </trkpt>
      <trkpt lat="43.66627" lon="2.0406">
        <ele>262</ele>
        <time>2010-12-12T08:10:43Z</time>
      </trkpt>
      <trkpt lat="43.66644" lon="2.04073">
        <ele>262</ele>
        <time>2010-12-12T08:10:59Z</time>
      </trkpt>
      <trkpt lat="43.6666" lon="2.04084">
        <ele>263</ele>
        <time>2010-12-12T08:11:13Z</time>
      </trkpt>
      <trkpt lat="43.66678" lon="2.04091">
        <ele>264</ele>
        <time>2010-12-12T08:11:26Z</time>
      </trkpt>
      <trkpt lat="43.66699" lon="2.04098">
        <ele>266</ele>
        <time>2010-12-12T08:11:46Z</time>
      </trkpt>
      <trkpt lat="43.66718" lon="2.04097">
        <ele>266</ele>
        <time>2010-12-12T08:12:02Z</time>
      </trkpt>
      <trkpt lat="43.66736" lon="2.041">
        <ele>266</ele>
        <time>2010-12-12T08:12:15Z</time>
      </trkpt>
      <trkpt lat="43.66755" lon="2.04109">
        <ele>265</ele>
        <time>2010-12-12T08:12:30Z</time>
      </trkpt>
      <trkpt lat="43.66773" lon="2.04112">
        <ele>265</ele>
        <time>2010-12-12T08:12:43Z</time>
      </trkpt>
      <trkpt lat="43.66794" lon="2.04115">
        <ele>265</ele>
        <time>2010-12-12T08:12:59Z</time>
      </trkpt>
      <trkpt lat="43.66813" lon="2.04114">
        <ele>265</ele>
        <time>2010-12-12T08:13:17Z</time>
      </trkpt>
      <trkpt lat="43.6683" lon="2.0411">
        <ele>264</ele>
        <time>2010-12-12T08:13:31Z</time>
      </trkpt>
      <trkpt lat="43.6685" lon="2.0412">
        <ele>264</ele>
        <time>2010-12-12T08:13:47Z</time>
      </trkpt>
      <trkpt lat="43.66866" lon="2.04135">
        <ele>265</ele>
        <time>2010-12-12T08:14:02Z</time>
      </trkpt>
      <trkpt lat="43.66882" lon="2.04146">
        <ele>267</ele>
        <time>2010-12-12T08:14:15Z</time>
      </trkpt>
      <trkpt lat="43.66899" lon="2.04155">
        <ele>268</ele>
        <time>2010-12-12T08:14:36Z</time>
      </trkpt>
      <trkpt lat="43.66914" lon="2.04171">
        <ele>268</ele>
        <time>2010-12-12T08:14:50Z</time>
      </trkpt>
      <trkpt lat="43.66928" lon="2.04191">
        <ele>268</ele>
        <time>2010-12-12T08:15:04Z</time>
      </trkpt>
      <trkpt lat="43.66938" lon="2.04212">
        <ele>268</ele>
        <time>2010-12-12T08:15:18Z</time>
      </trkpt>
      <trkpt lat="43.66953" lon="2.04226">
        <ele>266</ele>
        <time>2010-12-12T08:15:32Z</time>
      </trkpt>
      <trkpt lat="43.6697" lon="2.04234">
        <ele>265</ele>
        <time>2010-12-12T08:15:48Z</time>
      </trkpt>
      <trkpt lat="43.66985" lon="2.04251">
        <ele>264</ele>
        <time>2010-12-12T08:16:02Z</time>
      </trkpt>
      <trkpt lat="43.67" lon="2.04265">
        <ele>263</ele>
        <time>2010-12-12T08:16:14Z</time>
      </trkpt>
      <trkpt lat="43.67014" lon="2.04281">
        <ele>263</ele>
        <time>2010-12-12T08:16:29Z</time>
      </trkpt>
      <trkpt lat="43.6703" lon="2.043">
        <ele>263</ele>
        <time>2010-12-12T08:16:47Z</time>
      </trkpt>
      <trkpt lat="43.67048" lon="2.04309">
        <ele>263</ele>
        <time>2010-12-12T08:17:00Z</time>
      </trkpt>
      <trkpt lat="43.67055" lon="2.04333">
        <ele>263</ele>
        <time>2010-12-12T08:17:17Z</time>
      </trkpt>
      <trkpt lat="43.67056" lon="2.04359">
        <ele>262</ele>
        <time>2010-12-12T08:17:31Z</time>
      </trkpt>
      <trkpt lat="43.67067" lon="2.04381">
        <ele>262</ele>
        <time>2010-12-12T08:17:44Z</time>
      </trkpt>
      <trkpt lat="43.67084" lon="2.04388">
        <ele>261</ele>
        <time>2010-12-12T08:17:59Z</time>
      </trkpt>
      <trkpt lat="43.67103" lon="2.04387">
        <ele>260</ele>
        <time>2010-12-12T08:18:13Z</time>
      </trkpt>
      <trkpt lat="43.67121" lon="2.04391">
        <ele>260</ele>
        <time>2010-12-12T08:18:26Z</time>
      </trkpt>
      <trkpt lat="43.6714" lon="2.04395">
        <ele>259</ele>
        <time>2010-12-12T08:19:28Z</time>
      </trkpt>
      <trkpt lat="43.67159" lon="2.04411">
        <ele>257</ele>
        <time>2010-12-12T08:19:37Z</time>
      </trkpt>
      <trkpt lat="43.67176" lon="2.04428">
        <ele>256</ele>
        <time>2010-12-12T08:19:50Z</time>
      </trkpt>
      <trkpt lat="43.67197" lon="2.04441">
        <ele>258</ele>
        <time>2010-12-12T08:20:04Z</time>
      </trkpt>
      <trkpt lat="43.67208" lon="2.04462">
        <ele>261</ele>
        <time>2010-12-12T08:20:17Z</time>
      </trkpt>
      <trkpt lat="43.67221" lon="2.0448">
        <ele>262</ele>
        <time>2010-12-12T08:20:31Z</time>
      </trkpt>
      <trkpt lat="43.67239" lon="2.04474">
        <ele>261</ele>
        <time>2010-12-12T08:20:43Z</time>
      </trkpt>
      <trkpt lat="43.67257" lon="2.04466">
        <ele>261</ele>
        <time>2010-12-12T08:21:04Z</time>
      </trkpt>
      <trkpt lat="43.67276" lon="2.04464">
        <ele>261</ele>
        <time>2010-12-12T08:21:18Z</time>
      </trkpt>
      <trkpt lat="43.67294" lon="2.04468">
        <ele>261</ele>
        <time>2010-12-12T08:21:40Z</time>
      </trkpt>
      <trkpt lat="43.67311" lon="2.04479">
        <ele>260</ele>
        <time>2010-12-12T08:21:54Z</time>
      </trkpt>
      <trkpt lat="43.67329" lon="2.04484">
        <ele>258</ele>
        <time>2010-12-12T08:22:12Z</time>
      </trkpt>
      <trkpt lat="43.67347" lon="2.04489">
        <ele>256</ele>
        <time>2010-12-12T08:22:27Z</time>
      </trkpt>
      <trkpt lat="43.67367" lon="2.04485">
        <ele>254</ele>
        <time>2010-12-12T08:22:41Z</time>
      </trkpt>
      <trkpt lat="43.67385" lon="2.04475">
        <ele>252</ele>
        <time>2010-12-12T08:22:57Z</time>
      </trkpt>
      <trkpt lat="43.67404" lon="2.04473">
        <ele>249</ele>
        <time>2010-12-12T08:23:14Z</time>
      </trkpt>
      <trkpt lat="43.67422" lon="2.04471">
        <ele>248</ele>
        <time>2010-12-12T08:23:30Z</time>
      </trkpt>
      <trkpt lat="43.67409" lon="2.04491">
        <ele>250</ele>
        <time>2010-12-12T08:24:57Z</time>
      </trkpt>
      <trkpt lat="43.67392" lon="2.04502">
        <ele>253</ele>
        <time>2010-12-12T08:25:11Z</time>
      </trkpt>
      <trkpt lat="43.67374" lon="2.04505">
        <ele>256</ele>
        <time>2010-12-12T08:25:29Z</time>
      </trkpt>
      <trkpt lat="43.6736" lon="2.04523">
        <ele>255</ele>
        <time>2010-12-12T08:25:47Z</time>
      </trkpt>
      <trkpt lat="43.67347" lon="2.04541">
        <ele>254</ele>
        <time>2010-12-12T08:26:01Z</time>
      </trkpt>
      <trkpt lat="43.67342" lon="2.04565">
        <ele>254</ele>
        <time>2010-12-12T08:26:19Z</time>
      </trkpt>
      <trkpt lat="43.67334" lon="2.04589">
        <ele>253</ele>
        <time>2010-12-12T08:26:34Z</time>
      </trkpt>
      <trkpt lat="43.67337" lon="2.04617">
        <ele>251</ele>
        <time>2010-12-12T08:26:57Z</time>
      </trkpt>
      <trkpt lat="43.67349" lon="2.04637">
        <ele>248</ele>
        <time>2010-12-12T08:27:13Z</time>
      </trkpt>
      <trkpt lat="43.67362" lon="2.04655">
        <ele>245</ele>
        <time>2010-12-12T08:27:28Z</time>
      </trkpt>
      <trkpt lat="43.6738" lon="2.04665">
        <ele>244</ele>
        <time>2010-12-12T08:27:40Z</time>
      </trkpt>
      <trkpt lat="43.67395" lon="2.04683">
        <ele>244</ele>
        <time>2010-12-12T08:27:52Z</time>
      </trkpt>
      <trkpt lat="43.67414" lon="2.04687">
        <ele>244</ele>
        <time>2010-12-12T08:28:03Z</time>
      </trkpt>
      <trkpt lat="43.67427" lon="2.04708">
        <ele>243</ele>
        <time>2010-12-12T08:28:30Z</time>
      </trkpt>
      <trkpt lat="43.67435" lon="2.04731">
        <ele>243</ele>
        <time>2010-12-12T08:28:47Z</time>
      </trkpt>
      <trkpt lat="43.67447" lon="2.04752">
        <ele>243</ele>
        <time>2010-12-12T08:29:03Z</time>
      </trkpt>
      <trkpt lat="43.67461" lon="2.04771">
        <ele>245</ele>
        <time>2010-12-12T08:29:22Z</time>
      </trkpt>
      <trkpt lat="43.67476" lon="2.04786">
        <ele>247</ele>
        <time>2010-12-12T08:29:39Z</time>
      </trkpt>
      <trkpt lat="43.67491" lon="2.04805">
        <ele>249</ele>
        <time>2010-12-12T08:30:02Z</time>
      </trkpt>
      <trkpt lat="43.675" lon="2.04827">
        <ele>251</ele>
        <time>2010-12-12T08:30:15Z</time>
      </trkpt>
      <trkpt lat="43.67504" lon="2.04852">
        <ele>252</ele>
        <time>2010-12-12T08:30:32Z</time>
      </trkpt>
      <trkpt lat="43.67513" lon="2.04874">
        <ele>252</ele>
        <time>2010-12-12T08:30:48Z</time>
      </trkpt>
      <trkpt lat="43.67524" lon="2.04899">
        <ele>252</ele>
        <time>2010-12-12T08:31:07Z</time>
      </trkpt>
      <trkpt lat="43.67534" lon="2.04921">
        <ele>252</ele>
        <time>2010-12-12T08:31:21Z</time>
      </trkpt>
      <trkpt lat="43.67541" lon="2.04946">
        <ele>253</ele>
        <time>2010-12-12T08:31:40Z</time>
      </trkpt>
      <trkpt lat="43.67554" lon="2.04971">
        <ele>253</ele>
        <time>2010-12-12T08:31:59Z</time>
      </trkpt>
      <trkpt lat="43.6757" lon="2.04984">
        <ele>253</ele>
        <time>2010-12-12T08:32:13Z</time>
      </trkpt>
      <trkpt lat="43.67587" lon="2.04993">
        <ele>252</ele>
        <time>2010-12-12T08:32:29Z</time>
      </trkpt>
      <trkpt lat="43.67601" lon="2.05008">
        <ele>252</ele>
        <time>2010-12-12T08:32:46Z</time>
      </trkpt>
      <trkpt lat="43.67602" lon="2.05034">
        <ele>252</ele>
        <time>2010-12-12T08:33:07Z</time>
      </trkpt>
      <trkpt lat="43.67602" lon="2.05061">
        <ele>253</ele>
        <time>2010-12-12T08:33:21Z</time>
      </trkpt>
      <trkpt lat="43.67613" lon="2.05082">
        <ele>254</ele>
        <time>2010-12-12T08:33:35Z</time>
      </trkpt>
      <trkpt lat="43.67621" lon="2.05105">
        <ele>254</ele>
        <time>2010-12-12T08:33:51Z</time>
      </trkpt>
      <trkpt lat="43.67628" lon="2.0513">
        <ele>253</ele>
        <time>2010-12-12T08:34:10Z</time>
      </trkpt>
      <trkpt lat="43.67629" lon="2.05155">
        <ele>254</ele>
        <time>2010-12-12T08:34:37Z</time>
      </trkpt>
      <trkpt lat="43.67616" lon="2.05176">
        <ele>256</ele>
        <time>2010-12-12T08:35:04Z</time>
      </trkpt>
      <trkpt lat="43.67608" lon="2.05199">
        <ele>257</ele>
        <time>2010-12-12T08:35:21Z</time>
      </trkpt>
      <trkpt lat="43.67605" lon="2.05228">
        <ele>259</ele>
        <time>2010-12-12T08:35:41Z</time>
      </trkpt>
      <trkpt lat="43.67588" lon="2.05237">
        <ele>261</ele>
        <time>2010-12-12T08:36:03Z</time>
      </trkpt>
      <trkpt lat="43.67576" lon="2.05257">
        <ele>264</ele>
        <time>2010-12-12T08:36:22Z</time>
      </trkpt>
      <trkpt lat="43.67569" lon="2.05279">
        <ele>266</ele>
        <time>2010-12-12T08:36:38Z</time>
      </trkpt>
      <trkpt lat="43.67568" lon="2.05304">
        <ele>265</ele>
        <time>2010-12-12T08:37:22Z</time>
      </trkpt>
      <trkpt lat="43.67579" lon="2.05324">
        <ele>264</ele>
        <time>2010-12-12T08:37:35Z</time>
      </trkpt>
      <trkpt lat="43.67563" lon="2.05335">
        <ele>263</ele>
        <time>2010-12-12T08:37:59Z</time>
      </trkpt>
      <trkpt lat="43.67568" lon="2.05361">
        <ele>263</ele>
        <time>2010-12-12T08:38:28Z</time>
      </trkpt>
      <trkpt lat="43.6758" lon="2.0538">
        <ele>263</ele>
        <time>2010-12-12T08:38:49Z</time>
      </trkpt>
      <trkpt lat="43.67585" lon="2.05404">
        <ele>263</ele>
        <time>2010-12-12T08:39:05Z</time>
      </trkpt>
      <trkpt lat="43.67593" lon="2.05428">
        <ele>264</ele>
        <time>2010-12-12T08:39:31Z</time>
      </trkpt>
      <trkpt lat="43.676" lon="2.0545">
        <ele>265</ele>
        <time>2010-12-12T08:39:47Z</time>
      </trkpt>
      <trkpt lat="43.67607" lon="2.05474">
        <ele>266</ele>
        <time>2010-12-12T08:40:05Z</time>
      </trkpt>
      <trkpt lat="43.67604" lon="2.05499">
        <ele>267</ele>
        <time>2010-12-12T08:40:21Z</time>
      </trkpt>
      <trkpt lat="43.67604" lon="2.0553">
        <ele>268</ele>
        <time>2010-12-12T08:40:43Z</time>
      </trkpt>
      <trkpt lat="43.67585" lon="2.05533">
        <ele>271</ele>
        <time>2010-12-12T08:41:09Z</time>
      </trkpt>
      <trkpt lat="43.67568" lon="2.05525">
        <ele>275</ele>
        <time>2010-12-12T08:41:25Z</time>
      </trkpt>
      <trkpt lat="43.67549" lon="2.05529">
        <ele>280</ele>
        <time>2010-12-12T08:41:41Z</time>
      </trkpt>
      <trkpt lat="43.67531" lon="2.05534">
        <ele>284</ele>
        <time>2010-12-12T08:42:01Z</time>
      </trkpt>
      <trkpt lat="43.67517" lon="2.05553">
        <ele>286</ele>
        <time>2010-12-12T08:42:16Z</time>
      </trkpt>
      <trkpt lat="43.67503" lon="2.05571">
        <ele>286</ele>
        <time>2010-12-12T08:42:31Z</time>
      </trkpt>
      <trkpt lat="43.67494" lon="2.05592">
        <ele>283</ele>
        <time>2010-12-12T08:42:56Z</time>
      </trkpt>
      <trkpt lat="43.67503" lon="2.05614">
        <ele>281</ele>
        <time>2010-12-12T08:43:11Z</time>
      </trkpt>
      <trkpt lat="43.67507" lon="2.05638">
        <ele>281</ele>
        <time>2010-12-12T08:43:27Z</time>
      </trkpt>
      <trkpt lat="43.67509" lon="2.05664">
        <ele>282</ele>
        <time>2010-12-12T08:43:42Z</time>
      </trkpt>
      <trkpt lat="43.67514" lon="2.05688">
        <ele>284</ele>
        <time>2010-12-12T08:44:00Z</time>
      </trkpt>
      <trkpt lat="43.67514" lon="2.05714">
        <ele>284</ele>
        <time>2010-12-12T08:44:14Z</time>
      </trkpt>
      <trkpt lat="43.67516" lon="2.05739">
        <ele>285</ele>
        <time>2010-12-12T08:44:29Z</time>
      </trkpt>
      <trkpt lat="43.6752" lon="2.05763">
        <ele>286</ele>
        <time>2010-12-12T08:44:46Z</time>
      </trkpt>
      <trkpt lat="43.67516" lon="2.05789">
        <ele>288</ele>
        <time>2010-12-12T08:45:03Z</time>
      </trkpt>
      <trkpt lat="43.67507" lon="2.05812">
        <ele>291</ele>
        <time>2010-12-12T08:45:18Z</time>
      </trkpt>
      <trkpt lat="43.67499" lon="2.05837">
        <ele>293</ele>
        <time>2010-12-12T08:45:38Z</time>
      </trkpt>
      <trkpt lat="43.67497" lon="2.05862">
        <ele>296</ele>
        <time>2010-12-12T08:45:53Z</time>
      </trkpt>
      <trkpt lat="43.67489" lon="2.05889">
        <ele>297</ele>
        <time>2010-12-12T08:46:10Z</time>
      </trkpt>
      <trkpt lat="43.67485" lon="2.05914">
        <ele>297</ele>
        <time>2010-12-12T08:46:26Z</time>
      </trkpt>
      <trkpt lat="43.67479" lon="2.05937">
        <ele>298</ele>
        <time>2010-12-12T08:46:42Z</time>
      </trkpt>
      <trkpt lat="43.67473" lon="2.05963">
        <ele>300</ele>
        <time>2010-12-12T08:46:59Z</time>
      </trkpt>
      <trkpt lat="43.6747" lon="2.05989">
        <ele>303</ele>
        <time>2010-12-12T08:47:15Z</time>
      </trkpt>
      <trkpt lat="43.67465" lon="2.06014">
        <ele>304</ele>
        <time>2010-12-12T08:47:31Z</time>
      </trkpt>
      <trkpt lat="43.67456" lon="2.06035">
        <ele>304</ele>
        <time>2010-12-12T08:47:45Z</time>
      </trkpt>
      <trkpt lat="43.6745" lon="2.0606">
        <ele>303</ele>
        <time>2010-12-12T08:48:02Z</time>
      </trkpt>
      <trkpt lat="43.67441" lon="2.06083">
        <ele>303</ele>
        <time>2010-12-12T08:48:17Z</time>
      </trkpt>
      <trkpt lat="43.67427" lon="2.06098">
        <ele>302</ele>
        <time>2010-12-12T08:48:33Z</time>
      </trkpt>
      <trkpt lat="43.67414" lon="2.06117">
        <ele>304</ele>
        <time>2010-12-12T08:48:46Z</time>
      </trkpt>
      <trkpt lat="43.674" lon="2.06134">
        <ele>306</ele>
        <time>2010-12-12T08:49:04Z</time>
      </trkpt>
      <trkpt lat="43.6739" lon="2.06154">
        <ele>308</ele>
        <time>2010-12-12T08:49:19Z</time>
      </trkpt>
      <trkpt lat="43.67379" lon="2.06175">
        <ele>310</ele>
        <time>2010-12-12T08:49:34Z</time>
      </trkpt>
      <trkpt lat="43.6737" lon="2.06199">
        <ele>311</ele>
        <time>2010-12-12T08:49:53Z</time>
      </trkpt>
      <trkpt lat="43.67355" lon="2.06215">
        <ele>312</ele>
        <time>2010-12-12T08:50:11Z</time>
      </trkpt>
      <trkpt lat="43.67331" lon="2.06219">
        <ele>313</ele>
        <time>2010-12-12T08:50:32Z</time>
      </trkpt>
      <trkpt lat="43.67313" lon="2.06222">
        <ele>314</ele>
        <time>2010-12-12T08:50:48Z</time>
      </trkpt>
      <trkpt lat="43.67295" lon="2.06223">
        <ele>316</ele>
        <time>2010-12-12T08:51:04Z</time>
      </trkpt>
      <trkpt lat="43.67277" lon="2.06225">
        <ele>317</ele>
        <time>2010-12-12T08:51:25Z</time>
      </trkpt>
      <trkpt lat="43.6726" lon="2.06233">
        <ele>319</ele>
        <time>2010-12-12T08:51:41Z</time>
      </trkpt>
      <trkpt lat="43.67241" lon="2.0624">
        <ele>321</ele>
        <time>2010-12-12T08:51:58Z</time>
      </trkpt>
      <trkpt lat="43.67223" lon="2.06253">
        <ele>323</ele>
        <time>2010-12-12T08:52:17Z</time>
      </trkpt>
      <trkpt lat="43.67206" lon="2.0626">
        <ele>327</ele>
        <time>2010-12-12T08:52:37Z</time>
      </trkpt>
      <trkpt lat="43.67187" lon="2.0627">
        <ele>330</ele>
        <time>2010-12-12T08:52:57Z</time>
      </trkpt>
      <trkpt lat="43.6717" lon="2.06281">
        <ele>334</ele>
        <time>2010-12-12T08:53:19Z</time>
      </trkpt>
      <trkpt lat="43.67153" lon="2.06289">
        <ele>337</ele>
        <time>2010-12-12T08:53:38Z</time>
      </trkpt>
      <trkpt lat="43.67137" lon="2.063">
        <ele>340</ele>
        <time>2010-12-12T08:53:58Z</time>
      </trkpt>
      <trkpt lat="43.67118" lon="2.06302">
        <ele>343</ele>
        <time>2010-12-12T08:54:27Z</time>
      </trkpt>
      <trkpt lat="43.67101" lon="2.06309">
        <ele>348</ele>
        <time>2010-12-12T08:54:44Z</time>
      </trkpt>
      <trkpt lat="43.67083" lon="2.06319">
        <ele>353</ele>
        <time>2010-12-12T08:55:12Z</time>
      </trkpt>
      <trkpt lat="43.67065" lon="2.06323">
        <ele>358</ele>
        <time>2010-12-12T08:55:39Z</time>
      </trkpt>
      <trkpt lat="43.67069" lon="2.06349">
        <ele>361</ele>
        <time>2010-12-12T09:00:34Z</time>
      </trkpt>
      <trkpt lat="43.67085" lon="2.06362">
        <ele>362</ele>
        <time>2010-12-12T09:00:50Z</time>
      </trkpt>
      <trkpt lat="43.67103" lon="2.06375">
        <ele>361</ele>
        <time>2010-12-12T09:01:03Z</time>
      </trkpt>
      <trkpt lat="43.67119" lon="2.06391">
        <ele>360</ele>
        <time>2010-12-12T09:01:20Z</time>
      </trkpt>
      <trkpt lat="43.67135" lon="2.06404">
        <ele>359</ele>
        <time>2010-12-12T09:01:41Z</time>
      </trkpt>
      <trkpt lat="43.6715" lon="2.06422">
        <ele>357</ele>
        <time>2010-12-12T09:01:52Z</time>
      </trkpt>
      <trkpt lat="43.67156" lon="2.06447">
        <ele>355</ele>
        <time>2010-12-12T09:02:06Z</time>
      </trkpt>
      <trkpt lat="43.67155" lon="2.06473">
        <ele>353</ele>
        <time>2010-12-12T09:02:20Z</time>
      </trkpt>
      <trkpt lat="43.6715" lon="2.06501">
        <ele>353</ele>
        <time>2010-12-12T09:02:36Z</time>
      </trkpt>
      <trkpt lat="43.67155" lon="2.06527">
        <ele>352</ele>
        <time>2010-12-12T09:02:49Z</time>
      </trkpt>
      <trkpt lat="43.67161" lon="2.06553">
        <ele>351</ele>
        <time>2010-12-12T09:03:02Z</time>
      </trkpt>
      <trkpt lat="43.67165" lon="2.06579">
        <ele>350</ele>
        <time>2010-12-12T09:03:17Z</time>
      </trkpt>
      <trkpt lat="43.67175" lon="2.06602">
        <ele>351</ele>
        <time>2010-12-12T09:03:31Z</time>
      </trkpt>
      <trkpt lat="43.6718" lon="2.06628">
        <ele>351</ele>
        <time>2010-12-12T09:03:46Z</time>
      </trkpt>
      <trkpt lat="43.6719" lon="2.06649">
        <ele>352</ele>
        <time>2010-12-12T09:03:58Z</time>
      </trkpt>
      <trkpt lat="43.67199" lon="2.06673">
        <ele>353</ele>
        <time>2010-12-12T09:04:12Z</time>
      </trkpt>
      <trkpt lat="43.67213" lon="2.06689">
        <ele>354</ele>
        <time>2010-12-12T09:04:25Z</time>
      </trkpt>
      <trkpt lat="43.67225" lon="2.06709">
        <ele>353</ele>
        <time>2010-12-12T09:04:38Z</time>
      </trkpt>
      <trkpt lat="43.67239" lon="2.06726">
        <ele>354</ele>
        <time>2010-12-12T09:04:52Z</time>
      </trkpt>
      <trkpt lat="43.6725" lon="2.06746">
        <ele>355</ele>
        <time>2010-12-12T09:05:06Z</time>
      </trkpt>
      <trkpt lat="43.67263" lon="2.06766">
        <ele>355</ele>
        <time>2010-12-12T09:05:18Z</time>
      </trkpt>
      <trkpt lat="43.67267" lon="2.06792">
        <ele>356</ele>
        <time>2010-12-12T09:05:34Z</time>
      </trkpt>
      <trkpt lat="43.6728" lon="2.06811">
        <ele>358</ele>
        <time>2010-12-12T09:05:48Z</time>
      </trkpt>
      <trkpt lat="43.67292" lon="2.06832">
        <ele>360</ele>
        <time>2010-12-12T09:06:02Z</time>
      </trkpt>
      <trkpt lat="43.67304" lon="2.06853">
        <ele>362</ele>
        <time>2010-12-12T09:06:18Z</time>
      </trkpt>
      <trkpt lat="43.67318" lon="2.06875">
        <ele>362</ele>
        <time>2010-12-12T09:06:31Z</time>
      </trkpt>
      <trkpt lat="43.67319" lon="2.06902">
        <ele>361</ele>
        <time>2010-12-12T09:06:46Z</time>
      </trkpt>
      <trkpt lat="43.67319" lon="2.06927">
        <ele>360</ele>
        <time>2010-12-12T09:07:00Z</time>
      </trkpt>
      <trkpt lat="43.67323" lon="2.06953">
        <ele>360</ele>
        <time>2010-12-12T09:07:15Z</time>
      </trkpt>
      <trkpt lat="43.67325" lon="2.06978">
        <ele>361</ele>
        <time>2010-12-12T09:07:31Z</time>
      </trkpt>
      <trkpt lat="43.67335" lon="2.06999">
        <ele>363</ele>
        <time>2010-12-12T09:07:43Z</time>
      </trkpt>
      <trkpt lat="43.67345" lon="2.07022">
        <ele>364</ele>
        <time>2010-12-12T09:07:55Z</time>
      </trkpt>
      <trkpt lat="43.67351" lon="2.07047">
        <ele>364</ele>
        <time>2010-12-12T09:08:11Z</time>
      </trkpt>
      <trkpt lat="43.67361" lon="2.0707">
        <ele>363</ele>
        <time>2010-12-12T09:08:25Z</time>
      </trkpt>
      <trkpt lat="43.67368" lon="2.07093">
        <ele>361</ele>
        <time>2010-12-12T09:08:36Z</time>
      </trkpt>
      <trkpt lat="43.67378" lon="2.07114">
        <ele>360</ele>
        <time>2010-12-12T09:08:51Z</time>
      </trkpt>
      <trkpt lat="43.67386" lon="2.0714">
        <ele>359</ele>
        <time>2010-12-12T09:09:07Z</time>
      </trkpt>
      <trkpt lat="43.67395" lon="2.07164">
        <ele>359</ele>
        <time>2010-12-12T09:09:20Z</time>
      </trkpt>
      <trkpt lat="43.67385" lon="2.07186">
        <ele>358</ele>
        <time>2010-12-12T09:09:38Z</time>
      </trkpt>
      <trkpt lat="43.67367" lon="2.07193">
        <ele>358</ele>
        <time>2010-12-12T09:09:52Z</time>
      </trkpt>
      <trkpt lat="43.67349" lon="2.07203">
        <ele>357</ele>
        <time>2010-12-12T09:10:08Z</time>
      </trkpt>
      <trkpt lat="43.6733" lon="2.07208">
        <ele>358</ele>
        <time>2010-12-12T09:10:22Z</time>
      </trkpt>
      <trkpt lat="43.67313" lon="2.07216">
        <ele>359</ele>
        <time>2010-12-12T09:10:33Z</time>
      </trkpt>
      <trkpt lat="43.67293" lon="2.07229">
        <ele>360</ele>
        <time>2010-12-12T09:10:52Z</time>
      </trkpt>
      <trkpt lat="43.67279" lon="2.07246">
        <ele>361</ele>
        <time>2010-12-12T09:11:07Z</time>
      </trkpt>
      <trkpt lat="43.67264" lon="2.07261">
        <ele>361</ele>
        <time>2010-12-12T09:11:20Z</time>
      </trkpt>
      <trkpt lat="43.67254" lon="2.07282">
        <ele>361</ele>
        <time>2010-12-12T09:11:38Z</time>
      </trkpt>
      <trkpt lat="43.67237" lon="2.07294">
        <ele>360</ele>
        <time>2010-12-12T09:11:51Z</time>
      </trkpt>
      <trkpt lat="43.67222" lon="2.07308">
        <ele>359</ele>
        <time>2010-12-12T09:12:06Z</time>
      </trkpt>
      <trkpt lat="43.67204" lon="2.07321">
        <ele>360</ele>
        <time>2010-12-12T09:12:23Z</time>
      </trkpt>
      <trkpt lat="43.67189" lon="2.07335">
        <ele>361</ele>
        <time>2010-12-12T09:12:39Z</time>
      </trkpt>
      <trkpt lat="43.67171" lon="2.07342">
        <ele>363</ele>
        <time>2010-12-12T09:12:53Z</time>
      </trkpt>
      <trkpt lat="43.67155" lon="2.07327">
        <ele>363</ele>
        <time>2010-12-12T09:13:33Z</time>
      </trkpt>
      <trkpt lat="43.67141" lon="2.07349">
        <ele>362</ele>
        <time>2010-12-12T09:14:09Z</time>
      </trkpt>
      <trkpt lat="43.67124" lon="2.07362">
        <ele>361</ele>
        <time>2010-12-12T09:14:26Z</time>
      </trkpt>
      <trkpt lat="43.67108" lon="2.07376">
        <ele>360</ele>
        <time>2010-12-12T09:14:43Z</time>
      </trkpt>
      <trkpt lat="43.67091" lon="2.07382">
        <ele>357</ele>
        <time>2010-12-12T09:15:02Z</time>
      </trkpt>
      <trkpt lat="43.67072" lon="2.07382">
        <ele>355</ele>
        <time>2010-12-12T09:15:17Z</time>
      </trkpt>
      <trkpt lat="43.67052" lon="2.07379">
        <ele>354</ele>
        <time>2010-12-12T09:15:31Z</time>
      </trkpt>
      <trkpt lat="43.67035" lon="2.07389">
        <ele>354</ele>
        <time>2010-12-12T09:15:46Z</time>
      </trkpt>
      <trkpt lat="43.67017" lon="2.07397">
        <ele>353</ele>
        <time>2010-12-12T09:16:00Z</time>
      </trkpt>
      <trkpt lat="43.66998" lon="2.07406">
        <ele>349</ele>
        <time>2010-12-12T09:16:20Z</time>
      </trkpt>
      <trkpt lat="43.6698" lon="2.07414">
        <ele>345</ele>
        <time>2010-12-12T09:16:35Z</time>
      </trkpt>
      <trkpt lat="43.6696" lon="2.0742">
        <ele>342</ele>
        <time>2010-12-12T09:16:49Z</time>
      </trkpt>
      <trkpt lat="43.66941" lon="2.07417">
        <ele>340</ele>
        <time>2010-12-12T09:17:05Z</time>
      </trkpt>
      <trkpt lat="43.66922" lon="2.07417">
        <ele>339</ele>
        <time>2010-12-12T09:17:20Z</time>
      </trkpt>
      <trkpt lat="43.66904" lon="2.07413">
        <ele>337</ele>
        <time>2010-12-12T09:17:40Z</time>
      </trkpt>
      <trkpt lat="43.66885" lon="2.07417">
        <ele>334</ele>
        <time>2010-12-12T09:17:58Z</time>
      </trkpt>
      <trkpt lat="43.66872" lon="2.07398">
        <ele>332</ele>
        <time>2010-12-12T09:18:18Z</time>
      </trkpt>
      <trkpt lat="43.66859" lon="2.07381">
        <ele>332</ele>
        <time>2010-12-12T09:18:34Z</time>
      </trkpt>
      <trkpt lat="43.66846" lon="2.07362">
        <ele>332</ele>
        <time>2010-12-12T09:18:50Z</time>
      </trkpt>
      <trkpt lat="43.66843" lon="2.07338">
        <ele>334</ele>
        <time>2010-12-12T09:19:17Z</time>
      </trkpt>
      <trkpt lat="43.66831" lon="2.07318">
        <ele>336</ele>
        <time>2010-12-12T09:19:33Z</time>
      </trkpt>
      <trkpt lat="43.66822" lon="2.07296">
        <ele>338</ele>
        <time>2010-12-12T09:19:51Z</time>
      </trkpt>
      <trkpt lat="43.66807" lon="2.07283">
        <ele>341</ele>
        <time>2010-12-12T09:20:05Z</time>
      </trkpt>
      <trkpt lat="43.6679" lon="2.07273">
        <ele>342</ele>
        <time>2010-12-12T09:20:20Z</time>
      </trkpt>
      <trkpt lat="43.66772" lon="2.07262">
        <ele>343</ele>
        <time>2010-12-12T09:20:43Z</time>
      </trkpt>
      <trkpt lat="43.66755" lon="2.07255">
        <ele>344</ele>
        <time>2010-12-12T09:20:52Z</time>
      </trkpt>
      <trkpt lat="43.66736" lon="2.0726">
        <ele>346</ele>
        <time>2010-12-12T09:21:05Z</time>
      </trkpt>
      <trkpt lat="43.66714" lon="2.07263">
        <ele>349</ele>
        <time>2010-12-12T09:21:22Z</time>
      </trkpt>
      <trkpt lat="43.66697" lon="2.07254">
        <ele>351</ele>
        <time>2010-12-12T09:21:37Z</time>
      </trkpt>
      <trkpt lat="43.66679" lon="2.07253">
        <ele>352</ele>
        <time>2010-12-12T09:21:51Z</time>
      </trkpt>
      <trkpt lat="43.66659" lon="2.07253">
        <ele>352</ele>
        <time>2010-12-12T09:22:08Z</time>
      </trkpt>
      <trkpt lat="43.66641" lon="2.07252">
        <ele>351</ele>
        <time>2010-12-12T09:22:21Z</time>
      </trkpt>
      <trkpt lat="43.6662" lon="2.07245">
        <ele>350</ele>
        <time>2010-12-12T09:22:41Z</time>
      </trkpt>
      <trkpt lat="43.66608" lon="2.07226">
        <ele>351</ele>
        <time>2010-12-12T09:22:56Z</time>
      </trkpt>
      <trkpt lat="43.66597" lon="2.07206">
        <ele>352</ele>
        <time>2010-12-12T09:23:10Z</time>
      </trkpt>
      <trkpt lat="43.6659" lon="2.0718">
        <ele>352</ele>
        <time>2010-12-12T09:23:29Z</time>
      </trkpt>
      <trkpt lat="43.66587" lon="2.07152">
        <ele>350</ele>
        <time>2010-12-12T09:23:46Z</time>
      </trkpt>
      <trkpt lat="43.66584" lon="2.07127">
        <ele>346</ele>
        <time>2010-12-12T09:24:01Z</time>
      </trkpt>
      <trkpt lat="43.66592" lon="2.07105">
        <ele>342</ele>
        <time>2010-12-12T09:24:17Z</time>
      </trkpt>
      <trkpt lat="43.66598" lon="2.07081">
        <ele>338</ele>
        <time>2010-12-12T09:24:31Z</time>
      </trkpt>
      <trkpt lat="43.66604" lon="2.07057">
        <ele>334</ele>
        <time>2010-12-12T09:24:44Z</time>
      </trkpt>
      <trkpt lat="43.66609" lon="2.07032">
        <ele>332</ele>
        <time>2010-12-12T09:25:00Z</time>
      </trkpt>
      <trkpt lat="43.6662" lon="2.07012">
        <ele>328</ele>
        <time>2010-12-12T09:25:14Z</time>
      </trkpt>
      <trkpt lat="43.66612" lon="2.06989">
        <ele>325</ele>
        <time>2010-12-12T09:25:34Z</time>
      </trkpt>
      <trkpt lat="43.66594" lon="2.06985">
        <ele>322</ele>
        <time>2010-12-12T09:25:47Z</time>
      </trkpt>
      <trkpt lat="43.66579" lon="2.06971">
        <ele>321</ele>
        <time>2010-12-12T09:26:05Z</time>
      </trkpt>
      <trkpt lat="43.66567" lon="2.06951">
        <ele>321</ele>
        <time>2010-12-12T09:26:20Z</time>
      </trkpt>
      <trkpt lat="43.6655" lon="2.06967">
        <ele>319</ele>
        <time>2010-12-12T09:26:36Z</time>
      </trkpt>
      <trkpt lat="43.66547" lon="2.06993">
        <ele>317</ele>
        <time>2010-12-12T09:26:51Z</time>
      </trkpt>
      <trkpt lat="43.66541" lon="2.07017">
        <ele>313</ele>
        <time>2010-12-12T09:27:08Z</time>
      </trkpt>
      <trkpt lat="43.6652" lon="2.07028">
        <ele>310</ele>
        <time>2010-12-12T09:27:29Z</time>
      </trkpt>
      <trkpt lat="43.66501" lon="2.07025">
        <ele>309</ele>
        <time>2010-12-12T09:27:43Z</time>
      </trkpt>
      <trkpt lat="43.66482" lon="2.07027">
        <ele>310</ele>
        <time>2010-12-12T09:27:57Z</time>
      </trkpt>
      <trkpt lat="43.66465" lon="2.0702">
        <ele>313</ele>
        <time>2010-12-12T09:28:12Z</time>
      </trkpt>
      <trkpt lat="43.66454" lon="2.06999">
        <ele>315</ele>
        <time>2010-12-12T09:28:29Z</time>
      </trkpt>
      <trkpt lat="43.66441" lon="2.06981">
        <ele>315</ele>
        <time>2010-12-12T09:28:40Z</time>
      </trkpt>
      <trkpt lat="43.66427" lon="2.06963">
        <ele>315</ele>
        <time>2010-12-12T09:28:52Z</time>
      </trkpt>
      <trkpt lat="43.66409" lon="2.06954">
        <ele>315</ele>
        <time>2010-12-12T09:29:04Z</time>
      </trkpt>
      <trkpt lat="43.66393" lon="2.06942">
        <ele>317</ele>
        <time>2010-12-12T09:29:18Z</time>
      </trkpt>
      <trkpt lat="43.6638" lon="2.06922">
        <ele>318</ele>
        <time>2010-12-12T09:29:36Z</time>
      </trkpt>
      <trkpt lat="43.66359" lon="2.06905">
        <ele>317</ele>
        <time>2010-12-12T09:29:52Z</time>
      </trkpt>
      <trkpt lat="43.66343" lon="2.06889">
        <ele>315</ele>
        <time>2010-12-12T09:30:05Z</time>
      </trkpt>
      <trkpt lat="43.66326" lon="2.0688">
        <ele>314</ele>
        <time>2010-12-12T09:30:18Z</time>
      </trkpt>
      <trkpt lat="43.66307" lon="2.06882">
        <ele>312</ele>
        <time>2010-12-12T09:30:36Z</time>
      </trkpt>
      <trkpt lat="43.66289" lon="2.06886">
        <ele>309</ele>
        <time>2010-12-12T09:30:50Z</time>
      </trkpt>
      <trkpt lat="43.66271" lon="2.0689">
        <ele>306</ele>
        <time>2010-12-12T09:31:00Z</time>
      </trkpt>
      <trkpt lat="43.66254" lon="2.06894">
        <ele>304</ele>
        <time>2010-12-12T09:31:17Z</time>
      </trkpt>
      <trkpt lat="43.66233" lon="2.06896">
        <ele>303</ele>
        <time>2010-12-12T09:31:32Z</time>
      </trkpt>
      <trkpt lat="43.66215" lon="2.06898">
        <ele>302</ele>
        <time>2010-12-12T09:31:45Z</time>
      </trkpt>
      <trkpt lat="43.66196" lon="2.06896">
        <ele>302</ele>
        <time>2010-12-12T09:32:05Z</time>
      </trkpt>
      <trkpt lat="43.66177" lon="2.06898">
        <ele>302</ele>
        <time>2010-12-12T09:32:19Z</time>
      </trkpt>
      <trkpt lat="43.66156" lon="2.0689">
        <ele>302</ele>
        <time>2010-12-12T09:32:32Z</time>
      </trkpt>
      <trkpt lat="43.66138" lon="2.06894">
        <ele>302</ele>
        <time>2010-12-12T09:32:46Z</time>
      </trkpt>
      <trkpt lat="43.66119" lon="2.06891">
        <ele>302</ele>
        <time>2010-12-12T09:33:01Z</time>
      </trkpt>
      <trkpt lat="43.661" lon="2.06892">
        <ele>302</ele>
        <time>2010-12-12T09:33:14Z</time>
      </trkpt>
      <trkpt lat="43.66081" lon="2.06897">
        <ele>302</ele>
        <time>2010-12-12T09:33:50Z</time>
      </trkpt>
      <trkpt lat="43.66063" lon="2.06901">
        <ele>300</ele>
        <time>2010-12-12T09:34:06Z</time>
      </trkpt>
      <trkpt lat="43.66045" lon="2.06905">
        <ele>298</ele>
        <time>2010-12-12T09:34:22Z</time>
      </trkpt>
      <trkpt lat="43.66026" lon="2.0691">
        <ele>293</ele>
        <time>2010-12-12T09:34:36Z</time>
      </trkpt>
      <trkpt lat="43.66008" lon="2.06915">
        <ele>288</ele>
        <time>2010-12-12T09:34:55Z</time>
      </trkpt>
      <trkpt lat="43.65988" lon="2.06907">
        <ele>284</ele>
        <time>2010-12-12T09:35:09Z</time>
      </trkpt>
      <trkpt lat="43.6597" lon="2.06901">
        <ele>282</ele>
        <time>2010-12-12T09:35:22Z</time>
      </trkpt>
      <trkpt lat="43.65953" lon="2.06889">
        <ele>280</ele>
        <time>2010-12-12T09:35:39Z</time>
      </trkpt>
      <trkpt lat="43.65939" lon="2.0687">
        <ele>278</ele>
        <time>2010-12-12T09:35:53Z</time>
      </trkpt>
      <trkpt lat="43.65928" lon="2.06851">
        <ele>276</ele>
        <time>2010-12-12T09:36:06Z</time>
      </trkpt>
      <trkpt lat="43.65916" lon="2.06831">
        <ele>276</ele>
        <time>2010-12-12T09:36:23Z</time>
      </trkpt>
      <trkpt lat="43.65904" lon="2.06813">
        <ele>276</ele>
        <time>2010-12-12T09:36:34Z</time>
      </trkpt>
      <trkpt lat="43.6589" lon="2.06794">
        <ele>276</ele>
        <time>2010-12-12T09:36:52Z</time>
      </trkpt>
      <trkpt lat="43.65875" lon="2.06776">
        <ele>275</ele>
        <time>2010-12-12T09:37:09Z</time>
      </trkpt>
      <trkpt lat="43.65858" lon="2.06762">
        <ele>275</ele>
        <time>2010-12-12T09:37:21Z</time>
      </trkpt>
      <trkpt lat="43.6585" lon="2.0674">
        <ele>276</ele>
        <time>2010-12-12T09:37:34Z</time>
      </trkpt>
      <trkpt lat="43.65842" lon="2.06717">
        <ele>276</ele>
        <time>2010-12-12T09:37:48Z</time>
      </trkpt>
      <trkpt lat="43.65833" lon="2.06695">
        <ele>275</ele>
        <time>2010-12-12T09:38:02Z</time>
      </trkpt>
      <trkpt lat="43.65836" lon="2.0667">
        <ele>275</ele>
        <time>2010-12-12T09:38:22Z</time>
      </trkpt>
      <trkpt lat="43.65841" lon="2.06645">
        <ele>274</ele>
        <time>2010-12-12T09:38:37Z</time>
      </trkpt>
      <trkpt lat="43.6584" lon="2.0662">
        <ele>275</ele>
        <time>2010-12-12T09:38:53Z</time>
      </trkpt>
      <trkpt lat="43.65829" lon="2.066">
        <ele>274</ele>
        <time>2010-12-12T09:39:12Z</time>
      </trkpt>
      <trkpt lat="43.65815" lon="2.06582">
        <ele>275</ele>
        <time>2010-12-12T09:39:25Z</time>
      </trkpt>
      <trkpt lat="43.65799" lon="2.06565">
        <ele>275</ele>
        <time>2010-12-12T09:39:38Z</time>
      </trkpt>
      <trkpt lat="43.65789" lon="2.06543">
        <ele>275</ele>
        <time>2010-12-12T09:39:54Z</time>
      </trkpt>
      <trkpt lat="43.65781" lon="2.06519">
        <ele>275</ele>
        <time>2010-12-12T09:40:11Z</time>
      </trkpt>
      <trkpt lat="43.65774" lon="2.06494">
        <ele>272</ele>
        <time>2010-12-12T09:40:25Z</time>
      </trkpt>
      <trkpt lat="43.65764" lon="2.06469">
        <ele>270</ele>
        <time>2010-12-12T09:40:42Z</time>
      </trkpt>
      <trkpt lat="43.65748" lon="2.06451">
        <ele>267</ele>
        <time>2010-12-12T09:41:34Z</time>
      </trkpt>
      <trkpt lat="43.65738" lon="2.06431">
        <ele>265</ele>
        <time>2010-12-12T09:41:50Z</time>
      </trkpt>
      <trkpt lat="43.65728" lon="2.0641">
        <ele>262</ele>
        <time>2010-12-12T09:42:03Z</time>
      </trkpt>
      <trkpt lat="43.65712" lon="2.06398">
        <ele>261</ele>
        <time>2010-12-12T09:42:18Z</time>
      </trkpt>
      <trkpt lat="43.65696" lon="2.06381">
        <ele>259</ele>
        <time>2010-12-12T09:42:35Z</time>
      </trkpt>
      <trkpt lat="43.65682" lon="2.06359">
        <ele>256</ele>
        <time>2010-12-12T09:42:53Z</time>
      </trkpt>
      <trkpt lat="43.65667" lon="2.06345">
        <ele>253</ele>
        <time>2010-12-12T09:43:00Z</time>
      </trkpt>
      <trkpt lat="43.65658" lon="2.06323">
        <ele>251</ele>
        <time>2010-12-12T09:43:24Z</time>
      </trkpt>
      <trkpt lat="43.65644" lon="2.06306">
        <ele>251</ele>
        <time>2010-12-12T09:43:41Z</time>
      </trkpt>
      <trkpt lat="43.65633" lon="2.06284">
        <ele>248</ele>
        <time>2010-12-12T09:43:57Z</time>
      </trkpt>
      <trkpt lat="43.65622" lon="2.06264">
        <ele>246</ele>
        <time>2010-12-12T09:44:15Z</time>
      </trkpt>
      <trkpt lat="43.65611" lon="2.06244">
        <ele>241</ele>
        <time>2010-12-12T09:44:28Z</time>
      </trkpt>
      <trkpt lat="43.65597" lon="2.06226">
        <ele>238</ele>
        <time>2010-12-12T09:44:43Z</time>
      </trkpt>
      <trkpt lat="43.65585" lon="2.06207">
        <ele>237</ele>
        <time>2010-12-12T09:44:58Z</time>
      </trkpt>
      <trkpt lat="43.65574" lon="2.06188">
        <ele>237</ele>
        <time>2010-12-12T09:45:10Z</time>
      </trkpt>
      <trkpt lat="43.65558" lon="2.06169">
        <ele>237</ele>
        <time>2010-12-12T09:45:22Z</time>
      </trkpt>
      <trkpt lat="43.65551" lon="2.06145">
        <ele>236</ele>
        <time>2010-12-12T09:45:39Z</time>
      </trkpt>
      <trkpt lat="43.65545" lon="2.06121">
        <ele>236</ele>
        <time>2010-12-12T09:45:50Z</time>
      </trkpt>
      <trkpt lat="43.65547" lon="2.06095">
        <ele>234</ele>
        <time>2010-12-12T09:46:08Z</time>
      </trkpt>
      <trkpt lat="43.65555" lon="2.06072">
        <ele>233</ele>
        <time>2010-12-12T09:46:21Z</time>
      </trkpt>
      <trkpt lat="43.65561" lon="2.06049">
        <ele>231</ele>
        <time>2010-12-12T09:46:33Z</time>
      </trkpt>
      <trkpt lat="43.65551" lon="2.06028">
        <ele>230</ele>
        <time>2010-12-12T09:46:47Z</time>
      </trkpt>
      <trkpt lat="43.6556" lon="2.06006">
        <ele>228</ele>
        <time>2010-12-12T09:47:09Z</time>
      </trkpt>
      <trkpt lat="43.65578" lon="2.05995">
        <ele>227</ele>
        <time>2010-12-12T09:47:29Z</time>
      </trkpt>
      <trkpt lat="43.65596" lon="2.05993">
        <ele>227</ele>
        <time>2010-12-12T09:47:55Z</time>
      </trkpt>
      <trkpt lat="43.65613" lon="2.06005">
        <ele>227</ele>
        <time>2010-12-12T09:50:38Z</time>
      </trkpt>
      <trkpt lat="43.6563" lon="2.06017">
        <ele>225</ele>
        <time>2010-12-12T09:52:23Z</time>
      </trkpt>
      <trkpt lat="43.65644" lon="2.05999">
        <ele>225</ele>
        <time>2010-12-12T09:52:41Z</time>
      </trkpt>
      <trkpt lat="43.65656" lon="2.05981">
        <ele>227</ele>
        <time>2010-12-12T09:53:01Z</time>
      </trkpt>
      <trkpt lat="43.6567" lon="2.05965">
        <ele>230</ele>
        <time>2010-12-12T09:53:17Z</time>
      </trkpt>
      <trkpt lat="43.65681" lon="2.05945">
        <ele>233</ele>
        <time>2010-12-12T09:53:37Z</time>
      </trkpt>
      <trkpt lat="43.6569" lon="2.05922">
        <ele>236</ele>
        <time>2010-12-12T09:53:57Z</time>
      </trkpt>
      <trkpt lat="43.65698" lon="2.05899">
        <ele>238</ele>
        <time>2010-12-12T09:54:24Z</time>
      </trkpt>
      <trkpt lat="43.65717" lon="2.05898">
        <ele>240</ele>
        <time>2010-12-12T09:54:46Z</time>
      </trkpt>
      <trkpt lat="43.65738" lon="2.05896">
        <ele>242</ele>
        <time>2010-12-12T09:55:12Z</time>
      </trkpt>
      <trkpt lat="43.65755" lon="2.05905">
        <ele>246</ele>
        <time>2010-12-12T09:55:35Z</time>
      </trkpt>
      <trkpt lat="43.65772" lon="2.05916">
        <ele>251</ele>
        <time>2010-12-12T09:55:57Z</time>
      </trkpt>
      <trkpt lat="43.65791" lon="2.05927">
        <ele>256</ele>
        <time>2010-12-12T09:56:18Z</time>
      </trkpt>
      <trkpt lat="43.65809" lon="2.05935">
        <ele>259</ele>
        <time>2010-12-12T09:56:39Z</time>
      </trkpt>
      <trkpt lat="43.65825" lon="2.05946">
        <ele>261</ele>
        <time>2010-12-12T09:56:53Z</time>
      </trkpt>
      <trkpt lat="43.65839" lon="2.0597">
        <ele>263</ele>
        <time>2010-12-12T09:57:12Z</time>
      </trkpt>
      <trkpt lat="43.65855" lon="2.05982">
        <ele>264</ele>
        <time>2010-12-12T09:57:30Z</time>
      </trkpt>
      <trkpt lat="43.65868" lon="2.05999">
        <ele>266</ele>
        <time>2010-12-12T09:57:59Z</time>
      </trkpt>
      <trkpt lat="43.6588" lon="2.06019">
        <ele>268</ele>
        <time>2010-12-12T09:58:17Z</time>
      </trkpt>
      <trkpt lat="43.65897" lon="2.06027">
        <ele>271</ele>
        <time>2010-12-12T09:58:38Z</time>
      </trkpt>
      <trkpt lat="43.65915" lon="2.0603">
        <ele>273</ele>
        <time>2010-12-12T09:58:59Z</time>
      </trkpt>
      <trkpt lat="43.65934" lon="2.06006">
        <ele>276</ele>
        <time>2010-12-12T09:59:26Z</time>
      </trkpt>
      <trkpt lat="43.65953" lon="2.05992">
        <ele>280</ele>
        <time>2010-12-12T09:59:54Z</time>
      </trkpt>
      <trkpt lat="43.65971" lon="2.05983">
        <ele>284</ele>
        <time>2010-12-12T10:00:15Z</time>
      </trkpt>
      <trkpt lat="43.65988" lon="2.05973">
        <ele>286</ele>
        <time>2010-12-12T10:00:34Z</time>
      </trkpt>
      <trkpt lat="43.66007" lon="2.0597">
        <ele>289</ele>
        <time>2010-12-12T10:00:52Z</time>
      </trkpt>
      <trkpt lat="43.66025" lon="2.05971">
        <ele>292</ele>
        <time>2010-12-12T10:01:06Z</time>
      </trkpt>
      <trkpt lat="43.66044" lon="2.05971">
        <ele>294</ele>
        <time>2010-12-12T10:01:23Z</time>
      </trkpt>
      <trkpt lat="43.66062" lon="2.05971">
        <ele>295</ele>
        <time>2010-12-12T10:01:40Z</time>
      </trkpt>
      <trkpt lat="43.66083" lon="2.05972">
        <ele>296</ele>
        <time>2010-12-12T10:01:57Z</time>
      </trkpt>
      <trkpt lat="43.66102" lon="2.05975">
        <ele>299</ele>
        <time>2010-12-12T10:02:14Z</time>
      </trkpt>
      <trkpt lat="43.66121" lon="2.05977">
        <ele>301</ele>
        <time>2010-12-12T10:02:29Z</time>
      </trkpt>
      <trkpt lat="43.66139" lon="2.05977">
        <ele>303</ele>
        <time>2010-12-12T10:02:41Z</time>
      </trkpt>
      <trkpt lat="43.66156" lon="2.05986">
        <ele>304</ele>
        <time>2010-12-12T10:03:06Z</time>
      </trkpt>
      <trkpt lat="43.66175" lon="2.05984">
        <ele>305</ele>
        <time>2010-12-12T10:03:21Z</time>
      </trkpt>
      <trkpt lat="43.66195" lon="2.05983">
        <ele>307</ele>
        <time>2010-12-12T10:03:36Z</time>
      </trkpt>
      <trkpt lat="43.66213" lon="2.05981">
        <ele>308</ele>
        <time>2010-12-12T10:03:53Z</time>
      </trkpt>
      <trkpt lat="43.66233" lon="2.05971">
        <ele>308</ele>
        <time>2010-12-12T10:04:09Z</time>
      </trkpt>
      <trkpt lat="43.6625" lon="2.05964">
        <ele>308</ele>
        <time>2010-12-12T10:04:24Z</time>
      </trkpt>
      <trkpt lat="43.66267" lon="2.05955">
        <ele>307</ele>
        <time>2010-12-12T10:04:38Z</time>
      </trkpt>
      <trkpt lat="43.66289" lon="2.05958">
        <ele>307</ele>
        <time>2010-12-12T10:05:37Z</time>
      </trkpt>
      <trkpt lat="43.66307" lon="2.05965">
        <ele>308</ele>
        <time>2010-12-12T10:05:43Z</time>
      </trkpt>
      <trkpt lat="43.66324" lon="2.0597">
        <ele>308</ele>
        <time>2010-12-12T10:05:49Z</time>
      </trkpt>
      <trkpt lat="43.66346" lon="2.05979">
        <ele>309</ele>
        <time>2010-12-12T10:06:07Z</time>
      </trkpt>
      <trkpt lat="43.66363" lon="2.05992">
        <ele>311</ele>
        <time>2010-12-12T10:06:22Z</time>
      </trkpt>
      <trkpt lat="43.66384" lon="2.05986">
        <ele>310</ele>
        <time>2010-12-12T10:06:38Z</time>
      </trkpt>
      <trkpt lat="43.66402" lon="2.05994">
        <ele>310</ele>
        <time>2010-12-12T10:06:53Z</time>
      </trkpt>
      <trkpt lat="43.6642" lon="2.05994">
        <ele>309</ele>
        <time>2010-12-12T10:07:05Z</time>
      </trkpt>
      <trkpt lat="43.66439" lon="2.06004">
        <ele>311</ele>
        <time>2010-12-12T10:07:19Z</time>
      </trkpt>
      <trkpt lat="43.66455" lon="2.06015">
        <ele>313</ele>
        <time>2010-12-12T10:07:35Z</time>
      </trkpt>
      <trkpt lat="43.66471" lon="2.06029">
        <ele>314</ele>
        <time>2010-12-12T10:07:49Z</time>
      </trkpt>
      <trkpt lat="43.66484" lon="2.06047">
        <ele>314</ele>
        <time>2010-12-12T10:08:08Z</time>
      </trkpt>
      <trkpt lat="43.66498" lon="2.06063">
        <ele>313</ele>
        <time>2010-12-12T10:08:21Z</time>
      </trkpt>
      <trkpt lat="43.66517" lon="2.06083">
        <ele>315</ele>
        <time>2010-12-12T10:08:39Z</time>
      </trkpt>
      <trkpt lat="43.66531" lon="2.061">
        <ele>316</ele>
        <time>2010-12-12T10:08:56Z</time>
      </trkpt>
      <trkpt lat="43.66548" lon="2.06111">
        <ele>317</ele>
        <time>2010-12-12T10:09:12Z</time>
      </trkpt>
      <trkpt lat="43.66565" lon="2.06125">
        <ele>318</ele>
        <time>2010-12-12T10:09:31Z</time>
      </trkpt>
      <trkpt lat="43.66582" lon="2.06137">
        <ele>320</ele>
        <time>2010-12-12T10:09:46Z</time>
      </trkpt>
      <trkpt lat="43.666" lon="2.06143">
        <ele>323</ele>
        <time>2010-12-12T10:10:03Z</time>
      </trkpt>
      <trkpt lat="43.66617" lon="2.06154">
        <ele>324</ele>
        <time>2010-12-12T10:10:18Z</time>
      </trkpt>
      <trkpt lat="43.66637" lon="2.06159">
        <ele>326</ele>
        <time>2010-12-12T10:10:36Z</time>
      </trkpt>
      <trkpt lat="43.66655" lon="2.06161">
        <ele>329</ele>
        <time>2010-12-12T10:10:50Z</time>
      </trkpt>
      <trkpt lat="43.66673" lon="2.06161">
        <ele>333</ele>
        <time>2010-12-12T10:11:15Z</time>
      </trkpt>
      <trkpt lat="43.66692" lon="2.06161">
        <ele>336</ele>
        <time>2010-12-12T10:11:38Z</time>
      </trkpt>
      <trkpt lat="43.66711" lon="2.06164">
        <ele>340</ele>
        <time>2010-12-12T10:11:58Z</time>
      </trkpt>
      <trkpt lat="43.66727" lon="2.0615">
        <ele>342</ele>
        <time>2010-12-12T10:12:26Z</time>
      </trkpt>
      <trkpt lat="43.66744" lon="2.06143">
        <ele>340</ele>
        <time>2010-12-12T10:15:13Z</time>
      </trkpt>
      <trkpt lat="43.66762" lon="2.06137">
        <ele>340</ele>
        <time>2010-12-12T10:15:47Z</time>
      </trkpt>
      <trkpt lat="43.66781" lon="2.06131">
        <ele>341</ele>
        <time>2010-12-12T10:16:59Z</time>
      </trkpt>
      <trkpt lat="43.66797" lon="2.06121">
        <ele>345</ele>
        <time>2010-12-12T10:17:21Z</time>
      </trkpt>
      <trkpt lat="43.66816" lon="2.06116">
        <ele>346</ele>
        <time>2010-12-12T10:17:43Z</time>
      </trkpt>
      <trkpt lat="43.66831" lon="2.061">
        <ele>348</ele>
        <time>2010-12-12T10:18:06Z</time>
      </trkpt>
      <trkpt lat="43.66846" lon="2.06085">
        <ele>350</ele>
        <time>2010-12-12T10:18:25Z</time>
      </trkpt>
      <trkpt lat="43.6686" lon="2.06069">
        <ele>350</ele>
        <time>2010-12-12T10:18:40Z</time>
      </trkpt>
      <trkpt lat="43.66875" lon="2.06054">
        <ele>350</ele>
        <time>2010-12-12T10:18:56Z</time>
      </trkpt>
      <trkpt lat="43.66891" lon="2.06039">
        <ele>350</ele>
        <time>2010-12-12T10:19:12Z</time>
      </trkpt>
      <trkpt lat="43.66887" lon="2.06015">
        <ele>351</ele>
        <time>2010-12-12T10:19:28Z</time>
      </trkpt>
      <trkpt lat="43.66876" lon="2.05994">
        <ele>353</ele>
        <time>2010-12-12T10:19:42Z</time>
      </trkpt>
      <trkpt lat="43.66872" lon="2.0597">
        <ele>352</ele>
        <time>2010-12-12T10:19:59Z</time>
      </trkpt>
      <trkpt lat="43.66866" lon="2.05944">
        <ele>351</ele>
        <time>2010-12-12T10:20:12Z</time>
      </trkpt>
      <trkpt lat="43.66865" lon="2.05918">
        <ele>352</ele>
        <time>2010-12-12T10:20:27Z</time>
      </trkpt>
      <trkpt lat="43.66861" lon="2.05893">
        <ele>354</ele>
        <time>2010-12-12T10:20:46Z</time>
      </trkpt>
      <trkpt lat="43.66852" lon="2.05867">
        <ele>357</ele>
        <time>2010-12-12T10:20:57Z</time>
      </trkpt>
      <trkpt lat="43.66847" lon="2.05842">
        <ele>358</ele>
        <time>2010-12-12T10:21:13Z</time>
      </trkpt>
      <trkpt lat="43.66844" lon="2.05818">
        <ele>358</ele>
        <time>2010-12-12T10:21:27Z</time>
      </trkpt>
      <trkpt lat="43.66839" lon="2.05792">
        <ele>356</ele>
        <time>2010-12-12T10:21:40Z</time>
      </trkpt>
      <trkpt lat="43.66844" lon="2.05766">
        <ele>354</ele>
        <time>2010-12-12T10:21:54Z</time>
      </trkpt>
      <trkpt lat="43.66847" lon="2.0574">
        <ele>351</ele>
        <time>2010-12-12T10:22:07Z</time>
      </trkpt>
      <trkpt lat="43.6684" lon="2.05716">
        <ele>350</ele>
        <time>2010-12-12T10:22:23Z</time>
      </trkpt>
      <trkpt lat="43.66828" lon="2.05696">
        <ele>351</ele>
        <time>2010-12-12T10:22:36Z</time>
      </trkpt>
      <trkpt lat="43.66817" lon="2.05673">
        <ele>351</ele>
        <time>2010-12-12T10:22:51Z</time>
      </trkpt>
      <trkpt lat="43.66805" lon="2.05654">
        <ele>350</ele>
        <time>2010-12-12T10:23:03Z</time>
      </trkpt>
      <trkpt lat="43.66789" lon="2.05639">
        <ele>349</ele>
        <time>2010-12-12T10:23:18Z</time>
      </trkpt>
      <trkpt lat="43.66773" lon="2.05628">
        <ele>349</ele>
        <time>2010-12-12T10:23:29Z</time>
      </trkpt>
      <trkpt lat="43.66755" lon="2.05618">
        <ele>348</ele>
        <time>2010-12-12T10:23:44Z</time>
      </trkpt>
      <trkpt lat="43.66739" lon="2.05605">
        <ele>348</ele>
        <time>2010-12-12T10:23:58Z</time>
      </trkpt>
      <trkpt lat="43.66723" lon="2.05591">
        <ele>348</ele>
        <time>2010-12-12T10:24:19Z</time>
      </trkpt>
      <trkpt lat="43.66707" lon="2.05576">
        <ele>349</ele>
        <time>2010-12-12T10:24:44Z</time>
      </trkpt>
      <trkpt lat="43.66701" lon="2.05548">
        <ele>348</ele>
        <time>2010-12-12T10:25:20Z</time>
      </trkpt>
      <trkpt lat="43.66713" lon="2.05529">
        <ele>348</ele>
        <time>2010-12-12T10:25:39Z</time>
      </trkpt>
      <trkpt lat="43.66726" lon="2.05509">
        <ele>349</ele>
        <time>2010-12-12T10:26:08Z</time>
      </trkpt>
      <trkpt lat="43.6674" lon="2.0549">
        <ele>351</ele>
        <time>2010-12-12T10:26:27Z</time>
      </trkpt>
      <trkpt lat="43.66756" lon="2.05478">
        <ele>353</ele>
        <time>2010-12-12T10:26:44Z</time>
      </trkpt>
      <trkpt lat="43.66762" lon="2.05453">
        <ele>356</ele>
        <time>2010-12-12T10:27:05Z</time>
      </trkpt>
      <trkpt lat="43.66761" lon="2.05426">
        <ele>356</ele>
        <time>2010-12-12T10:27:23Z</time>
      </trkpt>
      <trkpt lat="43.6676" lon="2.05401">
        <ele>354</ele>
        <time>2010-12-12T10:27:37Z</time>
      </trkpt>
      <trkpt lat="43.66762" lon="2.05376">
        <ele>350</ele>
        <time>2010-12-12T10:27:54Z</time>
      </trkpt>
      <trkpt lat="43.66765" lon="2.0535">
        <ele>347</ele>
        <time>2010-12-12T10:28:08Z</time>
      </trkpt>
      <trkpt lat="43.66764" lon="2.05324">
        <ele>345</ele>
        <time>2010-12-12T10:28:23Z</time>
      </trkpt>
      <trkpt lat="43.66751" lon="2.05302">
        <ele>345</ele>
        <time>2010-12-12T10:28:42Z</time>
      </trkpt>
      <trkpt lat="43.66744" lon="2.05279">
        <ele>345</ele>
        <time>2010-12-12T10:28:58Z</time>
      </trkpt>
      <trkpt lat="43.66756" lon="2.05254">
        <ele>344</ele>
        <time>2010-12-12T10:30:01Z</time>
      </trkpt>
      <trkpt lat="43.66768" lon="2.05235">
        <ele>342</ele>
        <time>2010-12-12T10:30:20Z</time>
      </trkpt>
      <trkpt lat="43.66776" lon="2.05211">
        <ele>341</ele>
        <time>2010-12-12T10:30:41Z</time>
      </trkpt>
      <trkpt lat="43.66787" lon="2.05191">
        <ele>341</ele>
        <time>2010-12-12T10:30:58Z</time>
      </trkpt>
      <trkpt lat="43.66799" lon="2.0517">
        <ele>339</ele>
        <time>2010-12-12T10:31:14Z</time>
      </trkpt>
      <trkpt lat="43.66813" lon="2.05146">
        <ele>335</ele>
        <time>2010-12-12T10:31:34Z</time>
      </trkpt>
      <trkpt lat="43.66822" lon="2.05123">
        <ele>332</ele>
        <time>2010-12-12T10:31:49Z</time>
      </trkpt>
      <trkpt lat="43.66834" lon="2.05104">
        <ele>329</ele>
        <time>2010-12-12T10:32:04Z</time>
      </trkpt>
      <trkpt lat="43.66836" lon="2.05079">
        <ele>328</ele>
        <time>2010-12-12T10:32:19Z</time>
      </trkpt>
      <trkpt lat="43.66823" lon="2.0506">
        <ele>328</ele>
        <time>2010-12-12T10:32:37Z</time>
      </trkpt>
      <trkpt lat="43.66808" lon="2.05044">
        <ele>329</ele>
        <time>2010-12-12T10:32:48Z</time>
      </trkpt>
      <trkpt lat="43.66786" lon="2.05043">
        <ele>328</ele>
        <time>2010-12-12T10:33:06Z</time>
      </trkpt>
      <trkpt lat="43.66769" lon="2.05038">
        <ele>328</ele>
        <time>2010-12-12T10:33:21Z</time>
      </trkpt>
      <trkpt lat="43.6675" lon="2.05036">
        <ele>329</ele>
        <time>2010-12-12T10:33:42Z</time>
      </trkpt>
      <trkpt lat="43.66731" lon="2.05042">
        <ele>331</ele>
        <time>2010-12-12T10:34:01Z</time>
      </trkpt>
      <trkpt lat="43.66713" lon="2.05039">
        <ele>334</ele>
        <time>2010-12-12T10:34:17Z</time>
      </trkpt>
      <trkpt lat="43.66695" lon="2.05033">
        <ele>335</ele>
        <time>2010-12-12T10:34:51Z</time>
      </trkpt>
      <trkpt lat="43.66683" lon="2.05014">
        <ele>335</ele>
        <time>2010-12-12T10:35:13Z</time>
      </trkpt>
      <trkpt lat="43.66665" lon="2.05004">
        <ele>334</ele>
        <time>2010-12-12T10:35:27Z</time>
      </trkpt>
      <trkpt lat="43.66657" lon="2.04982">
        <ele>333</ele>
        <time>2010-12-12T10:35:46Z</time>
      </trkpt>
      <trkpt lat="43.66639" lon="2.04978">
        <ele>332</ele>
        <time>2010-12-12T10:36:06Z</time>
      </trkpt>
      <trkpt lat="43.66627" lon="2.04955">
        <ele>330</ele>
        <time>2010-12-12T10:36:34Z</time>
      </trkpt>
      <trkpt lat="43.66626" lon="2.0493">
        <ele>327</ele>
        <time>2010-12-12T10:36:51Z</time>
      </trkpt>
      <trkpt lat="43.66624" lon="2.04904">
        <ele>322</ele>
        <time>2010-12-12T10:37:18Z</time>
      </trkpt>
      <trkpt lat="43.6662" lon="2.04879">
        <ele>317</ele>
        <time>2010-12-12T10:37:39Z</time>
      </trkpt>
      <trkpt lat="43.66627" lon="2.04856">
        <ele>313</ele>
        <time>2010-12-12T10:38:00Z</time>
      </trkpt>
      <trkpt lat="43.66626" lon="2.04829">
        <ele>311</ele>
        <time>2010-12-12T10:38:18Z</time>
      </trkpt>
      <trkpt lat="43.66633" lon="2.04805">
        <ele>306</ele>
        <time>2010-12-12T10:38:50Z</time>
      </trkpt>
      <trkpt lat="43.66638" lon="2.0478">
        <ele>302</ele>
        <time>2010-12-12T10:39:10Z</time>
      </trkpt>
      <trkpt lat="43.66646" lon="2.04756">
        <ele>297</ele>
        <time>2010-12-12T10:39:31Z</time>
      </trkpt>
      <trkpt lat="43.66645" lon="2.0473">
        <ele>292</ele>
        <time>2010-12-12T10:39:51Z</time>
      </trkpt>
      <trkpt lat="43.6663" lon="2.04716">
        <ele>288</ele>
        <time>2010-12-12T10:40:08Z</time>
      </trkpt>
      <trkpt lat="43.66615" lon="2.04701">
        <ele>286</ele>
        <time>2010-12-12T10:40:21Z</time>
      </trkpt>
      <trkpt lat="43.66619" lon="2.04674">
        <ele>286</ele>
        <time>2010-12-12T10:40:42Z</time>
      </trkpt>
      <trkpt lat="43.66613" lon="2.04649">
        <ele>285</ele>
        <time>2010-12-12T10:41:02Z</time>
      </trkpt>
      <trkpt lat="43.66609" lon="2.04624">
        <ele>284</ele>
        <time>2010-12-12T10:41:16Z</time>
      </trkpt>
      <trkpt lat="43.66603" lon="2.046">
        <ele>283</ele>
        <time>2010-12-12T10:41:31Z</time>
      </trkpt>
      <trkpt lat="43.66586" lon="2.04586">
        <ele>283</ele>
        <time>2010-12-12T10:41:46Z</time>
      </trkpt>
      <trkpt lat="43.66584" lon="2.04561">
        <ele>282</ele>
        <time>2010-12-12T10:42:02Z</time>
      </trkpt>
      <trkpt lat="43.66565" lon="2.04549">
        <ele>282</ele>
        <time>2010-12-12T10:42:20Z</time>
      </trkpt>
      <trkpt lat="43.66546" lon="2.04554">
        <ele>279</ele>
        <time>2010-12-12T10:42:34Z</time>
      </trkpt>
      <trkpt lat="43.66534" lon="2.04574">
        <ele>277</ele>
        <time>2010-12-12T10:42:48Z</time>
      </trkpt>
      <trkpt lat="43.66516" lon="2.04564">
        <ele>273</ele>
        <time>2010-12-12T10:43:13Z</time>
      </trkpt>
      <trkpt lat="43.665" lon="2.04554">
        <ele>270</ele>
        <time>2010-12-12T10:43:28Z</time>
      </trkpt>
      <trkpt lat="43.66484" lon="2.04539">
        <ele>267</ele>
        <time>2010-12-12T10:43:42Z</time>
      </trkpt>
      <trkpt lat="43.66473" lon="2.0452">
        <ele>264</ele>
        <time>2010-12-12T10:44:01Z</time>
      </trkpt>
      <trkpt lat="43.66473" lon="2.04495">
        <ele>261</ele>
        <time>2010-12-12T10:44:15Z</time>
      </trkpt>
      <trkpt lat="43.66473" lon="2.04469">
        <ele>258</ele>
        <time>2010-12-12T10:44:35Z</time>
      </trkpt>
      <trkpt lat="43.66456" lon="2.04456">
        <ele>255</ele>
        <time>2010-12-12T10:44:48Z</time>
      </trkpt>
      <trkpt lat="43.66442" lon="2.04442">
        <ele>253</ele>
        <time>2010-12-12T10:45:02Z</time>
      </trkpt>
      <trkpt lat="43.66423" lon="2.04429">
        <ele>250</ele>
        <time>2010-12-12T10:45:24Z</time>
      </trkpt>
      <trkpt lat="43.66413" lon="2.04451">
        <ele>247</ele>
        <time>2010-12-12T10:47:12Z</time>
      </trkpt>
      <trkpt lat="43.66401" lon="2.04471">
        <ele>247</ele>
        <time>2010-12-12T10:47:30Z</time>
      </trkpt>
      <trkpt lat="43.66387" lon="2.04492">
        <ele>247</ele>
        <time>2010-12-12T10:47:48Z</time>
      </trkpt>
      <trkpt lat="43.66372" lon="2.04506">
        <ele>249</ele>
        <time>2010-12-12T10:48:02Z</time>
      </trkpt>
      <trkpt lat="43.6636" lon="2.04524">
        <ele>249</ele>
        <time>2010-12-12T10:48:19Z</time>
      </trkpt>
      <trkpt lat="43.6635" lon="2.04546">
        <ele>248</ele>
        <time>2010-12-12T10:48:33Z</time>
      </trkpt>
      <trkpt lat="43.66339" lon="2.04566">
        <ele>247</ele>
        <time>2010-12-12T10:48:46Z</time>
      </trkpt>
      <trkpt lat="43.66327" lon="2.04586">
        <ele>246</ele>
        <time>2010-12-12T10:49:02Z</time>
      </trkpt>
      <trkpt lat="43.66307" lon="2.04583">
        <ele>245</ele>
        <time>2010-12-12T10:49:23Z</time>
      </trkpt>
      <trkpt lat="43.6629" lon="2.04571">
        <ele>242</ele>
        <time>2010-12-12T10:49:36Z</time>
      </trkpt>
      <trkpt lat="43.66274" lon="2.04556">
        <ele>239</ele>
        <time>2010-12-12T10:49:49Z</time>
      </trkpt>
      <trkpt lat="43.66258" lon="2.04544">
        <ele>237</ele>
        <time>2010-12-12T10:50:05Z</time>
      </trkpt>
      <trkpt lat="43.6624" lon="2.04533">
        <ele>236</ele>
        <time>2010-12-12T10:50:18Z</time>
      </trkpt>
      <trkpt lat="43.66222" lon="2.04528">
        <ele>236</ele>
        <time>2010-12-12T10:50:34Z</time>
      </trkpt>
      <trkpt lat="43.66205" lon="2.04518">
        <ele>237</ele>
        <time>2010-12-12T10:50:47Z</time>
      </trkpt>
      <trkpt lat="43.66188" lon="2.04508">
        <ele>239</ele>
        <time>2010-12-12T10:51:01Z</time>
      </trkpt>
      <trkpt lat="43.6617" lon="2.04501">
        <ele>239</ele>
        <time>2010-12-12T10:51:16Z</time>
      </trkpt>
      <trkpt lat="43.66153" lon="2.04493">
        <ele>239</ele>
        <time>2010-12-12T10:51:29Z</time>
      </trkpt>
      <trkpt lat="43.66133" lon="2.04487">
        <ele>237</ele>
        <time>2010-12-12T10:51:44Z</time>
      </trkpt>
      <trkpt lat="43.66114" lon="2.04477">
        <ele>237</ele>
        <time>2010-12-12T10:52:00Z</time>
      </trkpt>
      <trkpt lat="43.66095" lon="2.04464">
        <ele>237</ele>
        <time>2010-12-12T10:52:15Z</time>
      </trkpt>
      <trkpt lat="43.66076" lon="2.04457">
        <ele>237</ele>
        <time>2010-12-12T10:52:29Z</time>
      </trkpt>
      <trkpt lat="43.66056" lon="2.04451">
        <ele>235</ele>
        <time>2010-12-12T10:52:43Z</time>
      </trkpt>
      <trkpt lat="43.66039" lon="2.04448">
        <ele>232</ele>
        <time>2010-12-12T10:52:58Z</time>
      </trkpt>
      <trkpt lat="43.6602" lon="2.04457">
        <ele>230</ele>
        <time>2010-12-12T10:53:10Z</time>
      </trkpt>
      <trkpt lat="43.66002" lon="2.04462">
        <ele>230</ele>
        <time>2010-12-12T10:53:24Z</time>
      </trkpt>
      <trkpt lat="43.65984" lon="2.04457">
        <ele>230</ele>
        <time>2010-12-12T10:53:40Z</time>
      </trkpt>
      <trkpt lat="43.65991" lon="2.04433">
        <ele>228</ele>
        <time>2010-12-12T10:54:06Z</time>
      </trkpt>
      <trkpt lat="43.66001" lon="2.04411">
        <ele>226</ele>
        <time>2010-12-12T10:56:23Z</time>
      </trkpt>
      <trkpt lat="43.6601" lon="2.04388">
        <ele>224</ele>
        <time>2010-12-12T10:56:55Z</time>
      </trkpt>
      <trkpt lat="43.65999" lon="2.04366">
        <ele>221</ele>
        <time>2010-12-12T10:57:07Z</time>
      </trkpt>
      <trkpt lat="43.65981" lon="2.04373">
        <ele>219</ele>
        <time>2010-12-12T10:57:24Z</time>
      </trkpt>
      <trkpt lat="43.65962" lon="2.04377">
        <ele>217</ele>
        <time>2010-12-12T10:57:44Z</time>
      </trkpt>
      <trkpt lat="43.65944" lon="2.04371">
        <ele>216</ele>
        <time>2010-12-12T10:57:58Z</time>
      </trkpt>
      <trkpt lat="43.65927" lon="2.04361">
        <ele>214</ele>
        <time>2010-12-12T10:58:14Z</time>
      </trkpt>
      <trkpt lat="43.65908" lon="2.04368">
        <ele>214</ele>
        <time>2010-12-12T10:58:29Z</time>
      </trkpt>
      <trkpt lat="43.65892" lon="2.0438">
        <ele>213</ele>
        <time>2010-12-12T10:58:46Z</time>
      </trkpt>
      <trkpt lat="43.65875" lon="2.04392">
        <ele>212</ele>
        <time>2010-12-12T10:59:07Z</time>
      </trkpt>
      <trkpt lat="43.65858" lon="2.04396">
        <ele>210</ele>
        <time>2010-12-12T10:59:23Z</time>
      </trkpt>
      <trkpt lat="43.6584" lon="2.04386">
        <ele>211</ele>
        <time>2010-12-12T10:59:36Z</time>
      </trkpt>
      <trkpt lat="43.6582" lon="2.04382">
        <ele>211</ele>
        <time>2010-12-12T10:59:51Z</time>
      </trkpt>
      <trkpt lat="43.65802" lon="2.04379">
        <ele>213</ele>
        <time>2010-12-12T11:00:06Z</time>
      </trkpt>
      <trkpt lat="43.65786" lon="2.04392">
        <ele>212</ele>
        <time>2010-12-12T11:00:32Z</time>
      </trkpt>
      <trkpt lat="43.65775" lon="2.04414">
        <ele>211</ele>
        <time>2010-12-12T11:00:46Z</time>
      </trkpt>
      <trkpt lat="43.65769" lon="2.04437">
        <ele>209</ele>
        <time>2010-12-12T11:01:00Z</time>
      </trkpt>
      <trkpt lat="43.65767" lon="2.04463">
        <ele>209</ele>
        <time>2010-12-12T11:01:13Z</time>
      </trkpt>
      <trkpt lat="43.65761" lon="2.04488">
        <ele>211</ele>
        <time>2010-12-12T11:01:30Z</time>
      </trkpt>
      <trkpt lat="43.65761" lon="2.04514">
        <ele>212</ele>
        <time>2010-12-12T11:01:45Z</time>
      </trkpt>
      <trkpt lat="43.65755" lon="2.0454">
        <ele>216</ele>
        <time>2010-12-12T11:03:57Z</time>
      </trkpt>
      <trkpt lat="43.6575" lon="2.04565">
        <ele>218</ele>
        <time>2010-12-12T11:04:19Z</time>
      </trkpt>
      <trkpt lat="43.65743" lon="2.04588">
        <ele>220</ele>
        <time>2010-12-12T11:04:38Z</time>
      </trkpt>
      <trkpt lat="43.65738" lon="2.04613">
        <ele>219</ele>
        <time>2010-12-12T11:05:01Z</time>
      </trkpt>
      <trkpt lat="43.65736" lon="2.04638">
        <ele>219</ele>
        <time>2010-12-12T11:05:20Z</time>
      </trkpt>
      <trkpt lat="43.65734" lon="2.04665">
        <ele>217</ele>
        <time>2010-12-12T11:05:38Z</time>
      </trkpt>
      <trkpt lat="43.65734" lon="2.04692">
        <ele>219</ele>
        <time>2010-12-12T11:05:59Z</time>
      </trkpt>
      <trkpt lat="43.65732" lon="2.04717">
        <ele>223</ele>
        <time>2010-12-12T11:06:16Z</time>
      </trkpt>
      <trkpt lat="43.65734" lon="2.04743">
        <ele>225</ele>
        <time>2010-12-12T11:06:39Z</time>
      </trkpt>
    </trkseg>
  </trk>
</gpx>